sensor_id;sensor_type;location;lat;lon;timestamp;P1;durP1;ratioP1;P2;durP2;ratioP2
22166;SDS011;11249;52.468;13.776;2022-10-18T00:00:44;31.02;;;23.85;;
22166;SDS011;11249;52.468;13.776;2022-10-18T00:03:10;31.33;;;22.10;;
22166;SDS011;11249;52.468;13.776;2022-10-18T00:05:37;26.40;;;20.77;;
22166;SDS011;11249;52.468;13.776;2022-10-18T00:08:03;27.15;;;21.17;;
22166;SDS011;11249;52.468;13.776;2022-10-18T00:10:30;31.63;;;23.15;;
22166;SDS011;11249;52.468;13.776;2022-10-18T00:12:57;34.35;;;23.52;;
22166;SDS011;11249;52.468;13.776;2022-10-18T00:15:23;32.30;;;24.10;;
22166;SDS011;11249;52.468;13.776;2022-10-18T00:17:50;31.13;;;23.63;;
22166;SDS011;11249;52.468;13.776;2022-10-18T00:20:17;28.25;;;22.67;;
22166;SDS011;11249;52.468;13.776;2022-10-18T00:22:43;30.30;;;23.08;;
22166;SDS011;11249;52.468;13.776;2022-10-18T00:25:10;32.38;;;24.60;;
22166;SDS011;11249;52.468;13.776;2022-10-18T00:27:37;29.35;;;22.58;;
22166;SDS011;11249;52.468;13.776;2022-10-18T00:30:04;32.92;;;24.30;;
22166;SDS011;11249;52.468;13.776;2022-10-18T00:32:34;31.08;;;23.63;;
22166;SDS011;11249;52.468;13.776;2022-10-18T00:35:04;30.27;;;24.33;;
22166;SDS011;11249;52.468;13.776;2022-10-18T00:37:32;29.67;;;21.88;;
22166;SDS011;11249;52.468;13.776;2022-10-18T00:40:00;29.48;;;22.73;;
22166;SDS011;11249;52.468;13.776;2022-10-18T00:42:29;32.80;;;24.08;;
22166;SDS011;11249;52.468;13.776;2022-10-18T00:44:59;31.08;;;23.98;;
22166;SDS011;11249;52.468;13.776;2022-10-18T00:47:29;32.63;;;25.02;;
22166;SDS011;11249;52.468;13.776;2022-10-18T00:49:59;34.00;;;25.77;;
22166;SDS011;11249;52.468;13.776;2022-10-18T00:52:33;34.42;;;23.85;;
22166;SDS011;11249;52.468;13.776;2022-10-18T00:55:03;32.22;;;24.50;;
22166;SDS011;11249;52.468;13.776;2022-10-18T00:57:31;32.53;;;24.98;;
22166;SDS011;11249;52.468;13.776;2022-10-18T00:59:58;32.30;;;25.05;;
22166;SDS011;11249;52.468;13.776;2022-10-18T01:02:25;32.55;;;24.83;;
22166;SDS011;11249;52.468;13.776;2022-10-18T01:04:52;36.38;;;24.73;;
22166;SDS011;11249;52.468;13.776;2022-10-18T01:07:26;32.95;;;23.05;;
22166;SDS011;11249;52.468;13.776;2022-10-18T01:10:17;34.17;;;25.10;;
22166;SDS011;11249;52.468;13.776;2022-10-18T01:12:58;32.15;;;24.20;;
22166;SDS011;11249;52.468;13.776;2022-10-18T01:15:56;30.80;;;23.38;;
22166;SDS011;11249;52.468;13.776;2022-10-18T01:19:17;31.40;;;24.85;;
22166;SDS011;11249;52.468;13.776;2022-10-18T01:21:30;30.08;;;24.85;;
22166;SDS011;11249;52.468;13.776;2022-10-18T01:24:28;33.75;;;22.85;;
22166;SDS011;11249;52.468;13.776;2022-10-18T01:27:28;31.98;;;22.67;;
22166;SDS011;11249;52.468;13.776;2022-10-18T01:30:35;31.55;;;23.75;;
22166;SDS011;11249;52.468;13.776;2022-10-18T01:36:20;32.05;;;23.35;;
22166;SDS011;11249;52.468;13.776;2022-10-18T01:38:58;30.38;;;23.92;;
22166;SDS011;11249;52.468;13.776;2022-10-18T01:41:27;31.90;;;23.40;;
22166;SDS011;11249;52.468;13.776;2022-10-18T01:43:56;30.08;;;22.83;;
22166;SDS011;11249;52.468;13.776;2022-10-18T01:46:25;30.58;;;23.70;;
22166;SDS011;11249;52.468;13.776;2022-10-18T01:48:54;31.95;;;23.52;;
22166;SDS011;11249;52.468;13.776;2022-10-18T01:51:25;32.05;;;23.17;;
22166;SDS011;11249;52.468;13.776;2022-10-18T01:53:53;31.90;;;22.90;;
22166;SDS011;11249;52.468;13.776;2022-10-18T01:56:22;39.97;;;25.30;;
22166;SDS011;11249;52.468;13.776;2022-10-18T02:01:40;30.17;;;23.27;;
22166;SDS011;11249;52.468;13.776;2022-10-18T02:07:05;32.17;;;22.60;;
22166;SDS011;11249;52.468;13.776;2022-10-18T02:09:56;30.85;;;22.52;;
22166;SDS011;11249;52.468;13.776;2022-10-18T02:12:28;26.45;;;20.67;;
22166;SDS011;11249;52.468;13.776;2022-10-18T02:14:58;35.10;;;23.23;;
22166;SDS011;11249;52.468;13.776;2022-10-18T02:17:27;32.92;;;22.80;;
22166;SDS011;11249;52.468;13.776;2022-10-18T02:19:56;29.80;;;21.17;;
22166;SDS011;11249;52.468;13.776;2022-10-18T02:22:25;35.80;;;24.02;;
22166;SDS011;11249;52.468;13.776;2022-10-18T02:24:57;30.27;;;22.20;;
22166;SDS011;11249;52.468;13.776;2022-10-18T02:27:26;31.80;;;23.65;;
22166;SDS011;11249;52.468;13.776;2022-10-18T02:29:53;33.13;;;24.08;;
22166;SDS011;11249;52.468;13.776;2022-10-18T02:32:24;29.83;;;22.98;;
22166;SDS011;11249;52.468;13.776;2022-10-18T02:35:01;35.92;;;24.27;;
22166;SDS011;11249;52.468;13.776;2022-10-18T02:37:33;28.20;;;22.92;;
22166;SDS011;11249;52.468;13.776;2022-10-18T02:40:05;34.67;;;24.55;;
22166;SDS011;11249;52.468;13.776;2022-10-18T02:42:37;34.63;;;25.58;;
22166;SDS011;11249;52.468;13.776;2022-10-18T02:45:09;32.17;;;24.15;;
22166;SDS011;11249;52.468;13.776;2022-10-18T02:47:37;40.25;;;26.05;;
22166;SDS011;11249;52.468;13.776;2022-10-18T02:50:04;35.97;;;26.08;;
22166;SDS011;11249;52.468;13.776;2022-10-18T02:52:31;47.42;;;31.83;;
22166;SDS011;11249;52.468;13.776;2022-10-18T02:54:58;41.53;;;29.85;;
22166;SDS011;11249;52.468;13.776;2022-10-18T02:57:24;40.75;;;28.77;;
22166;SDS011;11249;52.468;13.776;2022-10-18T02:59:51;46.00;;;32.78;;
22166;SDS011;11249;52.468;13.776;2022-10-18T03:02:17;39.33;;;29.85;;
22166;SDS011;11249;52.468;13.776;2022-10-18T03:04:44;58.47;;;40.40;;
22166;SDS011;11249;52.468;13.776;2022-10-18T03:07:11;64.72;;;42.05;;
22166;SDS011;11249;52.468;13.776;2022-10-18T03:09:37;62.50;;;42.03;;
22166;SDS011;11249;52.468;13.776;2022-10-18T03:12:04;67.20;;;45.30;;
22166;SDS011;11249;52.468;13.776;2022-10-18T03:14:31;57.47;;;42.03;;
22166;SDS011;11249;52.468;13.776;2022-10-18T03:16:57;63.55;;;42.83;;
22166;SDS011;11249;52.468;13.776;2022-10-18T03:19:24;57.28;;;41.45;;
22166;SDS011;11249;52.468;13.776;2022-10-18T03:21:51;62.95;;;41.45;;
22166;SDS011;11249;52.468;13.776;2022-10-18T03:24:17;54.40;;;38.08;;
22166;SDS011;11249;52.468;13.776;2022-10-18T03:26:44;58.72;;;39.40;;
22166;SDS011;11249;52.468;13.776;2022-10-18T03:29:11;47.70;;;37.05;;
22166;SDS011;11249;52.468;13.776;2022-10-18T03:31:38;54.15;;;38.10;;
22166;SDS011;11249;52.468;13.776;2022-10-18T03:34:04;56.67;;;39.08;;
22166;SDS011;11249;52.468;13.776;2022-10-18T03:36:31;59.53;;;38.08;;
22166;SDS011;11249;52.468;13.776;2022-10-18T03:38:59;52.83;;;38.35;;
22166;SDS011;11249;52.468;13.776;2022-10-18T03:41:26;50.08;;;36.58;;
22166;SDS011;11249;52.468;13.776;2022-10-18T03:43:53;50.22;;;35.53;;
22166;SDS011;11249;52.468;13.776;2022-10-18T03:46:20;47.40;;;34.00;;
22166;SDS011;11249;52.468;13.776;2022-10-18T03:48:47;48.88;;;35.13;;
22166;SDS011;11249;52.468;13.776;2022-10-18T03:51:13;42.22;;;32.80;;
22166;SDS011;11249;52.468;13.776;2022-10-18T03:53:40;44.80;;;31.17;;
22166;SDS011;11249;52.468;13.776;2022-10-18T03:56:06;44.88;;;32.20;;
22166;SDS011;11249;52.468;13.776;2022-10-18T03:58:33;43.88;;;28.70;;
22166;SDS011;11249;52.468;13.776;2022-10-18T04:01:00;41.03;;;28.13;;
22166;SDS011;11249;52.468;13.776;2022-10-18T04:03:27;38.95;;;28.45;;
22166;SDS011;11249;52.468;13.776;2022-10-18T04:05:54;38.45;;;28.30;;
22166;SDS011;11249;52.468;13.776;2022-10-18T04:08:20;33.10;;;26.25;;
22166;SDS011;11249;52.468;13.776;2022-10-18T04:10:47;37.22;;;27.75;;
22166;SDS011;11249;52.468;13.776;2022-10-18T04:13:14;31.33;;;26.65;;
22166;SDS011;11249;52.468;13.776;2022-10-18T04:15:40;43.50;;;28.63;;
22166;SDS011;11249;52.468;13.776;2022-10-18T04:18:08;41.30;;;29.83;;
22166;SDS011;11249;52.468;13.776;2022-10-18T04:20:35;42.22;;;29.90;;
22166;SDS011;11249;52.468;13.776;2022-10-18T04:23:01;37.17;;;28.48;;
22166;SDS011;11249;52.468;13.776;2022-10-18T04:25:28;44.50;;;29.25;;
22166;SDS011;11249;52.468;13.776;2022-10-18T04:27:55;33.50;;;25.83;;
22166;SDS011;11249;52.468;13.776;2022-10-18T04:30:22;47.65;;;30.17;;
22166;SDS011;11249;52.468;13.776;2022-10-18T04:32:48;38.00;;;27.88;;
22166;SDS011;11249;52.468;13.776;2022-10-18T04:35:15;29.42;;;24.65;;
22166;SDS011;11249;52.468;13.776;2022-10-18T04:37:42;35.40;;;26.77;;
22166;SDS011;11249;52.468;13.776;2022-10-18T04:40:08;38.72;;;28.85;;
22166;SDS011;11249;52.468;13.776;2022-10-18T04:42:35;30.15;;;23.13;;
22166;SDS011;11249;52.468;13.776;2022-10-18T04:45:02;35.38;;;25.27;;
22166;SDS011;11249;52.468;13.776;2022-10-18T04:47:29;33.55;;;25.48;;
22166;SDS011;11249;52.468;13.776;2022-10-18T04:49:56;36.50;;;26.58;;
22166;SDS011;11249;52.468;13.776;2022-10-18T04:52:23;34.70;;;25.55;;
22166;SDS011;11249;52.468;13.776;2022-10-18T04:54:49;27.52;;;21.52;;
22166;SDS011;11249;52.468;13.776;2022-10-18T04:57:16;36.95;;;24.42;;
22166;SDS011;11249;52.468;13.776;2022-10-18T04:59:43;41.22;;;28.23;;
22166;SDS011;11249;52.468;13.776;2022-10-18T05:02:09;32.83;;;24.95;;
22166;SDS011;11249;52.468;13.776;2022-10-18T05:04:36;31.25;;;23.45;;
22166;SDS011;11249;52.468;13.776;2022-10-18T05:07:03;37.63;;;25.35;;
22166;SDS011;11249;52.468;13.776;2022-10-18T05:09:31;34.50;;;25.05;;
22166;SDS011;11249;52.468;13.776;2022-10-18T05:11:58;34.33;;;25.50;;
22166;SDS011;11249;52.468;13.776;2022-10-18T05:14:25;46.80;;;28.98;;
22166;SDS011;11249;52.468;13.776;2022-10-18T05:16:51;43.22;;;28.95;;
22166;SDS011;11249;52.468;13.776;2022-10-18T05:19:18;36.17;;;25.58;;
22166;SDS011;11249;52.468;13.776;2022-10-18T05:21:45;31.90;;;23.45;;
22166;SDS011;11249;52.468;13.776;2022-10-18T05:24:11;25.60;;;21.08;;
22166;SDS011;11249;52.468;13.776;2022-10-18T05:26:38;28.33;;;22.20;;
22166;SDS011;11249;52.468;13.776;2022-10-18T05:29:05;28.77;;;21.98;;
22166;SDS011;11249;52.468;13.776;2022-10-18T05:31:32;31.52;;;22.67;;
22166;SDS011;11249;52.468;13.776;2022-10-18T05:33:58;28.23;;;21.00;;
22166;SDS011;11249;52.468;13.776;2022-10-18T05:36:26;31.20;;;23.90;;
22166;SDS011;11249;52.468;13.776;2022-10-18T05:38:53;29.92;;;22.00;;
22166;SDS011;11249;52.468;13.776;2022-10-18T05:41:22;27.77;;;21.98;;
22166;SDS011;11249;52.468;13.776;2022-10-18T05:43:49;29.77;;;23.83;;
22166;SDS011;11249;52.468;13.776;2022-10-18T05:46:15;33.03;;;24.05;;
22166;SDS011;11249;52.468;13.776;2022-10-18T05:48:42;33.67;;;23.58;;
22166;SDS011;11249;52.468;13.776;2022-10-18T05:51:14;29.30;;;22.65;;
22166;SDS011;11249;52.468;13.776;2022-10-18T05:53:40;28.85;;;23.77;;
22166;SDS011;11249;52.468;13.776;2022-10-18T05:56:07;35.75;;;25.58;;
22166;SDS011;11249;52.468;13.776;2022-10-18T05:58:37;36.58;;;27.75;;
22166;SDS011;11249;52.468;13.776;2022-10-18T06:01:04;37.20;;;27.25;;
22166;SDS011;11249;52.468;13.776;2022-10-18T06:03:32;39.35;;;26.77;;
22166;SDS011;11249;52.468;13.776;2022-10-18T06:05:59;32.03;;;24.90;;
22166;SDS011;11249;52.468;13.776;2022-10-18T06:08:30;33.60;;;25.73;;
22166;SDS011;11249;52.468;13.776;2022-10-18T06:10:57;39.42;;;27.50;;
22166;SDS011;11249;52.468;13.776;2022-10-18T06:13:24;40.53;;;28.80;;
22166;SDS011;11249;52.468;13.776;2022-10-18T06:15:54;37.30;;;25.08;;
22166;SDS011;11249;52.468;13.776;2022-10-18T06:18:22;35.88;;;26.15;;
22166;SDS011;11249;52.468;13.776;2022-10-18T06:20:54;38.15;;;27.92;;
22166;SDS011;11249;52.468;13.776;2022-10-18T06:23:22;33.17;;;24.80;;
22166;SDS011;11249;52.468;13.776;2022-10-18T06:25:49;31.00;;;23.55;;
22166;SDS011;11249;52.468;13.776;2022-10-18T06:28:16;38.72;;;26.52;;
22166;SDS011;11249;52.468;13.776;2022-10-18T06:30:43;40.45;;;27.48;;
22166;SDS011;11249;52.468;13.776;2022-10-18T06:33:09;45.35;;;28.25;;
22166;SDS011;11249;52.468;13.776;2022-10-18T06:35:39;40.03;;;27.23;;
22166;SDS011;11249;52.468;13.776;2022-10-18T06:38:05;35.35;;;25.55;;
22166;SDS011;11249;52.468;13.776;2022-10-18T06:40:32;31.65;;;24.38;;
22166;SDS011;11249;52.468;13.776;2022-10-18T06:43:03;31.65;;;23.45;;
22166;SDS011;11249;52.468;13.776;2022-10-18T06:45:45;34.00;;;25.92;;
22166;SDS011;11249;52.468;13.776;2022-10-18T06:48:13;37.88;;;25.92;;
22166;SDS011;11249;52.468;13.776;2022-10-18T06:50:39;41.97;;;26.40;;
22166;SDS011;11249;52.468;13.776;2022-10-18T06:53:06;37.83;;;25.20;;
22166;SDS011;11249;52.468;13.776;2022-10-18T06:55:34;41.25;;;26.80;;
22166;SDS011;11249;52.468;13.776;2022-10-18T06:58:01;38.10;;;25.73;;
22166;SDS011;11249;52.468;13.776;2022-10-18T07:00:28;37.67;;;26.50;;
22166;SDS011;11249;52.468;13.776;2022-10-18T07:02:55;42.72;;;25.42;;
22166;SDS011;11249;52.468;13.776;2022-10-18T07:05:22;43.50;;;26.83;;
22166;SDS011;11249;52.468;13.776;2022-10-18T07:07:49;29.83;;;22.67;;
22166;SDS011;11249;52.468;13.776;2022-10-18T07:10:21;35.38;;;23.27;;
22166;SDS011;11249;52.468;13.776;2022-10-18T07:12:48;34.25;;;23.38;;
22166;SDS011;11249;52.468;13.776;2022-10-18T07:15:39;33.50;;;24.52;;
22166;SDS011;11249;52.468;13.776;2022-10-18T07:18:37;35.08;;;24.70;;
22166;SDS011;11249;52.468;13.776;2022-10-18T07:21:06;39.78;;;25.35;;
22166;SDS011;11249;52.468;13.776;2022-10-18T07:23:36;32.27;;;23.00;;
22166;SDS011;11249;52.468;13.776;2022-10-18T07:28:47;37.55;;;24.48;;
22166;SDS011;11249;52.468;13.776;2022-10-18T07:31:23;35.05;;;24.45;;
22166;SDS011;11249;52.468;13.776;2022-10-18T07:33:50;32.10;;;23.25;;
22166;SDS011;11249;52.468;13.776;2022-10-18T07:36:17;31.98;;;23.15;;
22166;SDS011;11249;52.468;13.776;2022-10-18T07:38:46;34.97;;;24.23;;
22166;SDS011;11249;52.468;13.776;2022-10-18T07:41:13;33.72;;;23.45;;
22166;SDS011;11249;52.468;13.776;2022-10-18T07:43:41;33.92;;;23.20;;
22166;SDS011;11249;52.468;13.776;2022-10-18T07:46:12;34.33;;;23.95;;
22166;SDS011;11249;52.468;13.776;2022-10-18T07:48:39;38.33;;;23.98;;
22166;SDS011;11249;52.468;13.776;2022-10-18T07:51:06;36.38;;;22.33;;
22166;SDS011;11249;52.468;13.776;2022-10-18T07:53:33;30.77;;;22.20;;
22166;SDS011;11249;52.468;13.776;2022-10-18T07:56:01;23.42;;;17.90;;
22166;SDS011;11249;52.468;13.776;2022-10-18T07:58:34;23.50;;;17.75;;
22166;SDS011;11249;52.468;13.776;2022-10-18T08:01:02;24.27;;;17.55;;
22166;SDS011;11249;52.468;13.776;2022-10-18T08:03:32;28.10;;;17.58;;
22166;SDS011;11249;52.468;13.776;2022-10-18T08:06:00;22.38;;;17.33;;
22166;SDS011;11249;52.468;13.776;2022-10-18T08:08:27;20.70;;;16.83;;
22166;SDS011;11249;52.468;13.776;2022-10-18T08:10:55;25.02;;;17.98;;
22166;SDS011;11249;52.468;13.776;2022-10-18T08:13:28;19.40;;;15.18;;
22166;SDS011;11249;52.468;13.776;2022-10-18T08:15:59;19.23;;;14.23;;
22166;SDS011;11249;52.468;13.776;2022-10-18T08:18:27;21.40;;;13.35;;
22166;SDS011;11249;52.468;13.776;2022-10-18T08:20:54;16.33;;;13.85;;
22166;SDS011;11249;52.468;13.776;2022-10-18T08:23:20;13.68;;;10.95;;
22166;SDS011;11249;52.468;13.776;2022-10-18T08:25:47;17.73;;;12.98;;
22166;SDS011;11249;52.468;13.776;2022-10-18T08:28:14;14.65;;;10.38;;
22166;SDS011;11249;52.468;13.776;2022-10-18T08:30:42;13.43;;;10.05;;
22166;SDS011;11249;52.468;13.776;2022-10-18T08:33:09;10.20;;;8.00;;
22166;SDS011;11249;52.468;13.776;2022-10-18T08:36:01;8.25;;;7.45;;
22166;SDS011;11249;52.468;13.776;2022-10-18T08:38:33;12.07;;;8.68;;
22166;SDS011;11249;52.468;13.776;2022-10-18T08:41:05;10.27;;;8.00;;
22166;SDS011;11249;52.468;13.776;2022-10-18T08:43:49;12.82;;;8.32;;
22166;SDS011;11249;52.468;13.776;2022-10-18T08:46:36;10.20;;;7.03;;
22166;SDS011;11249;52.468;13.776;2022-10-18T08:49:08;12.20;;;7.00;;
22166;SDS011;11249;52.468;13.776;2022-10-18T08:51:44;14.38;;;9.13;;
22166;SDS011;11249;52.468;13.776;2022-10-18T08:54:14;11.45;;;8.98;;
22166;SDS011;11249;52.468;13.776;2022-10-18T08:56:58;12.07;;;9.77;;
22166;SDS011;11249;52.468;13.776;2022-10-18T08:59:35;14.68;;;9.55;;
22166;SDS011;11249;52.468;13.776;2022-10-18T09:02:10;11.88;;;10.07;;
22166;SDS011;11249;52.468;13.776;2022-10-18T09:08:12;16.50;;;9.05;;
22166;SDS011;11249;52.468;13.776;2022-10-18T09:11:06;15.70;;;8.90;;
22166;SDS011;11249;52.468;13.776;2022-10-18T09:19:21;14.75;;;9.82;;
22166;SDS011;11249;52.468;13.776;2022-10-18T09:27:55;14.48;;;10.90;;
22166;SDS011;11249;52.468;13.776;2022-10-18T09:30:40;18.42;;;13.20;;
22166;SDS011;11249;52.468;13.776;2022-10-18T09:33:27;19.40;;;14.40;;
22166;SDS011;11249;52.468;13.776;2022-10-18T09:36:29;15.85;;;14.13;;
22166;SDS011;11249;52.468;13.776;2022-10-18T09:39:09;23.05;;;14.40;;
22166;SDS011;11249;52.468;13.776;2022-10-18T09:41:40;19.73;;;14.40;;
22166;SDS011;11249;52.468;13.776;2022-10-18T09:47:23;25.00;;;16.00;;
22166;SDS011;11249;52.468;13.776;2022-10-18T09:50:16;24.45;;;16.05;;
22166;SDS011;11249;52.468;13.776;2022-10-18T09:52:58;24.27;;;17.10;;
22166;SDS011;11249;52.468;13.776;2022-10-18T09:58:40;20.85;;;15.02;;
22166;SDS011;11249;52.468;13.776;2022-10-18T10:01:09;16.67;;;13.60;;
22166;SDS011;11249;52.468;13.776;2022-10-18T10:03:54;17.40;;;12.77;;
22166;SDS011;11249;52.468;13.776;2022-10-18T10:06:25;21.60;;;13.02;;
22166;SDS011;11249;52.468;13.776;2022-10-18T10:11:31;11.38;;;8.68;;
22166;SDS011;11249;52.468;13.776;2022-10-18T10:14:13;14.95;;;10.35;;
22166;SDS011;11249;52.468;13.776;2022-10-18T10:19:21;16.08;;;11.13;;
22166;SDS011;11249;52.468;13.776;2022-10-18T10:21:54;14.07;;;11.02;;
22166;SDS011;11249;52.468;13.776;2022-10-18T10:24:36;15.10;;;10.68;;
22166;SDS011;11249;52.468;13.776;2022-10-18T10:27:15;11.45;;;8.25;;
22166;SDS011;11249;52.468;13.776;2022-10-18T10:32:15;9.10;;;8.18;;
22166;SDS011;11249;52.468;13.776;2022-10-18T10:34:44;10.73;;;8.18;;
22166;SDS011;11249;52.468;13.776;2022-10-18T10:37:25;11.15;;;7.85;;
22166;SDS011;11249;52.468;13.776;2022-10-18T10:40:33;8.75;;;7.32;;
22166;SDS011;11249;52.468;13.776;2022-10-18T10:43:30;12.23;;;8.40;;
22166;SDS011;11249;52.468;13.776;2022-10-18T10:46:05;8.75;;;6.63;;
22166;SDS011;11249;52.468;13.776;2022-10-18T10:48:46;10.75;;;7.75;;
22166;SDS011;11249;52.468;13.776;2022-10-18T10:51:13;11.82;;;7.60;;
22166;SDS011;11249;52.468;13.776;2022-10-18T10:54:01;9.45;;;6.90;;
22166;SDS011;11249;52.468;13.776;2022-10-18T10:56:36;7.90;;;6.68;;
22166;SDS011;11249;52.468;13.776;2022-10-18T10:59:46;7.50;;;6.70;;
22166;SDS011;11249;52.468;13.776;2022-10-18T11:02:20;10.85;;;7.75;;
22166;SDS011;11249;52.468;13.776;2022-10-18T11:07:55;9.13;;;6.50;;
22166;SDS011;11249;52.468;13.776;2022-10-18T11:13:00;9.13;;;6.88;;
22166;SDS011;11249;52.468;13.776;2022-10-18T11:15:49;9.07;;;6.55;;
22166;SDS011;11249;52.468;13.776;2022-10-18T11:18:33;9.60;;;7.28;;
22166;SDS011;11249;52.468;13.776;2022-10-18T11:23:38;7.97;;;6.88;;
22166;SDS011;11249;52.468;13.776;2022-10-18T11:26:12;11.88;;;7.68;;
22166;SDS011;11249;52.468;13.776;2022-10-18T11:29:04;12.65;;;7.32;;
22166;SDS011;11249;52.468;13.776;2022-10-18T11:40:08;13.18;;;8.00;;
22166;SDS011;11249;52.468;13.776;2022-10-18T11:43:06;9.95;;;7.53;;
22166;SDS011;11249;52.468;13.776;2022-10-18T11:46:17;10.43;;;7.65;;
22166;SDS011;11249;52.468;13.776;2022-10-18T11:49:26;9.88;;;8.02;;
22166;SDS011;11249;52.468;13.776;2022-10-18T11:57:39;13.93;;;8.95;;
22166;SDS011;11249;52.468;13.776;2022-10-18T12:00:42;8.63;;;7.70;;
22166;SDS011;11249;52.468;13.776;2022-10-18T12:06:40;9.88;;;8.30;;
22166;SDS011;11249;52.468;13.776;2022-10-18T12:09:23;10.02;;;7.78;;
22166;SDS011;11249;52.468;13.776;2022-10-18T12:11:56;9.05;;;7.68;;
22166;SDS011;11249;52.468;13.776;2022-10-18T12:14:28;9.93;;;7.60;;
22166;SDS011;11249;52.468;13.776;2022-10-18T12:17:01;8.68;;;7.78;;
22166;SDS011;11249;52.468;13.776;2022-10-18T12:19:50;8.95;;;7.53;;
22166;SDS011;11249;52.468;13.776;2022-10-18T12:22:34;8.02;;;7.22;;
22166;SDS011;11249;52.468;13.776;2022-10-18T12:25:09;10.77;;;7.85;;
22166;SDS011;11249;52.468;13.776;2022-10-18T12:27:40;9.95;;;8.23;;
22166;SDS011;11249;52.468;13.776;2022-10-18T12:30:23;8.48;;;7.65;;
22166;SDS011;11249;52.468;13.776;2022-10-18T12:33:04;8.48;;;7.60;;
22166;SDS011;11249;52.468;13.776;2022-10-18T12:36:04;10.68;;;8.77;;
22166;SDS011;11249;52.468;13.776;2022-10-18T12:41:31;8.90;;;7.53;;
22166;SDS011;11249;52.468;13.776;2022-10-18T12:44:02;9.65;;;8.27;;
22166;SDS011;11249;52.468;13.776;2022-10-18T12:46:44;9.10;;;8.20;;
22166;SDS011;11249;52.468;13.776;2022-10-18T12:49:16;9.60;;;7.95;;
22166;SDS011;11249;52.468;13.776;2022-10-18T12:51:49;9.60;;;8.60;;
22166;SDS011;11249;52.468;13.776;2022-10-18T12:54:21;9.10;;;8.18;;
22166;SDS011;11249;52.468;13.776;2022-10-18T12:56:53;9.98;;;8.98;;
22166;SDS011;11249;52.468;13.776;2022-10-18T13:09:31;11.88;;;9.90;;
22166;SDS011;11249;52.468;13.776;2022-10-18T13:14:30;10.40;;;8.70;;
22166;SDS011;11249;52.468;13.776;2022-10-18T13:17:22;14.27;;;10.65;;
22166;SDS011;11249;52.468;13.776;2022-10-18T13:20:20;15.77;;;13.55;;
22166;SDS011;11249;52.468;13.776;2022-10-18T13:23:08;17.13;;;13.15;;
22166;SDS011;11249;52.468;13.776;2022-10-18T13:25:45;27.35;;;21.70;;
22166;SDS011;11249;52.468;13.776;2022-10-18T13:28:20;33.28;;;23.05;;
22166;SDS011;11249;52.468;13.776;2022-10-18T13:31:00;33.95;;;23.92;;
22166;SDS011;11249;52.468;13.776;2022-10-18T13:33:44;30.73;;;22.10;;
22166;SDS011;11249;52.468;13.776;2022-10-18T13:41:26;28.85;;;22.27;;
22166;SDS011;11249;52.468;13.776;2022-10-18T13:55:01;20.27;;;15.50;;
22166;SDS011;11249;52.468;13.776;2022-10-18T14:06:24;13.18;;;11.82;;
22166;SDS011;11249;52.468;13.776;2022-10-18T14:09:00;14.30;;;11.32;;
22166;SDS011;11249;52.468;13.776;2022-10-18T14:14:49;15.10;;;11.95;;
22166;SDS011;11249;52.468;13.776;2022-10-18T14:17:41;16.27;;;11.30;;
22166;SDS011;11249;52.468;13.776;2022-10-18T14:20:19;12.52;;;10.68;;
22166;SDS011;11249;52.468;13.776;2022-10-18T14:23:04;14.13;;;11.57;;
22166;SDS011;11249;52.468;13.776;2022-10-18T14:25:38;12.60;;;10.95;;
22166;SDS011;11249;52.468;13.776;2022-10-18T14:28:08;12.95;;;11.18;;
22166;SDS011;11249;52.468;13.776;2022-10-18T14:33:31;12.63;;;10.80;;
22166;SDS011;11249;52.468;13.776;2022-10-18T14:36:07;13.85;;;11.15;;
22166;SDS011;11249;52.468;13.776;2022-10-18T14:38:53;12.80;;;10.85;;
22166;SDS011;11249;52.468;13.776;2022-10-18T14:41:26;14.18;;;10.98;;
22166;SDS011;11249;52.468;13.776;2022-10-18T14:44:17;12.95;;;10.25;;
22166;SDS011;11249;52.468;13.776;2022-10-18T14:46:50;13.07;;;11.55;;
22166;SDS011;11249;52.468;13.776;2022-10-18T14:49:27;15.43;;;11.55;;
22166;SDS011;11249;52.468;13.776;2022-10-18T14:51:56;11.85;;;10.30;;
22166;SDS011;11249;52.468;13.776;2022-10-18T14:54:31;13.23;;;10.30;;
22166;SDS011;11249;52.468;13.776;2022-10-18T14:57:02;12.60;;;10.27;;
22166;SDS011;11249;52.468;13.776;2022-10-18T14:59:37;13.32;;;10.60;;
22166;SDS011;11249;52.468;13.776;2022-10-18T15:05:05;14.13;;;10.05;;
22166;SDS011;11249;52.468;13.776;2022-10-18T15:07:42;15.57;;;10.70;;
22166;SDS011;11249;52.468;13.776;2022-10-18T15:10:21;12.65;;;10.75;;
22166;SDS011;11249;52.468;13.776;2022-10-18T15:12:50;13.45;;;10.15;;
22166;SDS011;11249;52.468;13.776;2022-10-18T15:15:35;15.90;;;10.15;;
22166;SDS011;11249;52.468;13.776;2022-10-18T15:18:02;11.52;;;9.82;;
22166;SDS011;11249;52.468;13.776;2022-10-18T15:20:31;12.68;;;10.57;;
22166;SDS011;11249;52.468;13.776;2022-10-18T15:25:50;11.20;;;10.10;;
22166;SDS011;11249;52.468;13.776;2022-10-18T15:28:29;14.75;;;10.20;;
22166;SDS011;11249;52.468;13.776;2022-10-18T15:30:58;15.32;;;10.90;;
22166;SDS011;11249;52.468;13.776;2022-10-18T15:33:27;12.77;;;10.63;;
22166;SDS011;11249;52.468;13.776;2022-10-18T15:36:09;16.23;;;11.10;;
22166;SDS011;11249;52.468;13.776;2022-10-18T15:38:42;12.63;;;10.63;;
22166;SDS011;11249;52.468;13.776;2022-10-18T15:44:14;18.10;;;11.82;;
22166;SDS011;11249;52.468;13.776;2022-10-18T15:46:49;20.60;;;13.00;;
22166;SDS011;11249;52.468;13.776;2022-10-18T15:57:48;18.13;;;14.18;;
22166;SDS011;11249;52.468;13.776;2022-10-18T16:00:17;17.25;;;13.88;;
22166;SDS011;11249;52.468;13.776;2022-10-18T16:02:45;24.58;;;14.75;;
22166;SDS011;11249;52.468;13.776;2022-10-18T16:05:13;18.58;;;14.48;;
22166;SDS011;11249;52.468;13.776;2022-10-18T16:07:44;20.70;;;14.70;;
22166;SDS011;11249;52.468;13.776;2022-10-18T16:10:12;18.63;;;14.23;;
22166;SDS011;11249;52.468;13.776;2022-10-18T16:12:39;20.00;;;15.10;;
22166;SDS011;11249;52.468;13.776;2022-10-18T16:15:06;22.63;;;15.82;;
22166;SDS011;11249;52.468;13.776;2022-10-18T16:17:33;22.67;;;16.33;;
22166;SDS011;11249;52.468;13.776;2022-10-18T16:20:00;17.08;;;15.18;;
22166;SDS011;11249;52.468;13.776;2022-10-18T16:22:27;17.95;;;14.95;;
22166;SDS011;11249;52.468;13.776;2022-10-18T16:24:58;21.48;;;16.65;;
22166;SDS011;11249;52.468;13.776;2022-10-18T16:27:25;21.15;;;15.90;;
22166;SDS011;11249;52.468;13.776;2022-10-18T16:29:51;22.75;;;16.80;;
22166;SDS011;11249;52.468;13.776;2022-10-18T16:32:18;21.10;;;15.60;;
22166;SDS011;11249;52.468;13.776;2022-10-18T16:34:45;17.85;;;14.35;;
22166;SDS011;11249;52.468;13.776;2022-10-18T16:37:11;17.90;;;15.57;;
22166;SDS011;11249;52.468;13.776;2022-10-18T16:39:38;18.17;;;15.93;;
22166;SDS011;11249;52.468;13.776;2022-10-18T16:42:05;15.73;;;13.30;;
22166;SDS011;11249;52.468;13.776;2022-10-18T16:44:32;21.67;;;15.43;;
22166;SDS011;11249;52.468;13.776;2022-10-18T16:46:58;26.35;;;19.48;;
22166;SDS011;11249;52.468;13.776;2022-10-18T16:49:25;27.02;;;18.08;;
22166;SDS011;11249;52.468;13.776;2022-10-18T16:51:52;24.45;;;16.40;;